sensor_id;sensor_type;location;lat;lon;timestamp;pressure;altitude;pressure_sealevel;temperature;humidity
23619;BME280;18207;32.078;34.818;2023-02-01T00:00:28;100499.56;;;20.29;45.84
23619;BME280;18207;32.078;34.818;2023-02-01T00:03:01;100515.16;;;20.30;46.25
23619;BME280;18207;32.078;34.818;2023-02-01T00:05:33;100519.25;;;20.32;46.42
23619;BME280;18207;32.078;34.818;2023-02-01T00:08:03;100521.69;;;20.34;46.26
23619;BME280;18207;32.078;34.818;2023-02-01T00:10:34;100521.38;;;20.35;46.44
23619;BME280;18207;32.078;34.818;2023-02-01T00:13:05;100513.00;;;20.35;46.24
23619;BME280;18207;32.078;34.818;2023-02-01T00:15:36;100517.25;;;20.33;45.78
23619;BME280;18207;32.078;34.818;2023-02-01T00:18:07;100505.63;;;20.31;46.28
23619;BME280;18207;32.078;34.818;2023-02-01T00:20:39;100504.31;;;20.28;45.78
23619;BME280;18207;32.078;34.818;2023-02-01T00:23:15;100521.75;;;20.25;45.68
23619;BME280;18207;32.078;34.818;2023-02-01T00:25:45;100511.75;;;20.24;46.10
23619;BME280;18207;32.078;34.818;2023-02-01T00:28:15;100518.81;;;20.22;45.73
23619;BME280;18207;32.078;34.818;2023-02-01T00:30:45;100514.72;;;20.19;46.18
23619;BME280;18207;32.078;34.818;2023-02-01T00:33:16;100522.97;;;20.16;46.31
23619;BME280;18207;32.078;34.818;2023-02-01T00:35:48;100521.31;;;20.15;46.32
23619;BME280;18207;32.078;34.818;2023-02-01T00:38:18;100519.19;;;20.12;45.69
23619;BME280;18207;32.078;34.818;2023-02-01T00:40:49;100515.97;;;20.10;46.23
23619;BME280;18207;32.078;34.818;2023-02-01T00:43:20;100513.97;;;20.10;45.70
23619;BME280;18207;32.078;34.818;2023-02-01T00:45:50;100508.38;;;20.10;45.84
23619;BME280;18207;32.078;34.818;2023-02-01T00:48:20;100494.44;;;20.10;45.84
23619;BME280;18207;32.078;34.818;2023-02-01T00:50:52;100482.94;;;20.12;46.03
23619;BME280;18207;32.078;34.818;2023-02-01T00:53:23;100495.72;;;20.13;46.06
23619;BME280;18207;32.078;34.818;2023-02-01T00:55:53;100496.56;;;20.13;45.92
23619;BME280;18207;32.078;34.818;2023-02-01T00:58:24;100499.50;;;20.17;46.37
23619;BME280;18207;32.078;34.818;2023-02-01T01:01:03;100494.38;;;20.19;46.49
23619;BME280;18207;32.078;34.818;2023-02-01T01:03:37;100487.97;;;20.18;46.30
23619;BME280;18207;32.078;34.818;2023-02-01T01:06:12;100490.78;;;20.18;46.07
23619;BME280;18207;32.078;34.818;2023-02-01T01:08:43;100489.97;;;20.18;46.15
23619;BME280;18207;32.078;34.818;2023-02-01T01:11:16;100489.97;;;20.18;46.00
23619;BME280;18207;32.078;34.818;2023-02-01T01:13:48;100492.28;;;20.16;45.91
23619;BME280;18207;32.078;34.818;2023-02-01T01:16:19;100475.88;;;20.14;46.37
23619;BME280;18207;32.078;34.818;2023-02-01T01:18:51;100482.63;;;20.13;45.97
23619;BME280;18207;32.078;34.818;2023-02-01T01:21:23;100458.66;;;20.12;45.82
23619;BME280;18207;32.078;34.818;2023-02-01T01:23:53;100457.03;;;20.11;45.87
23619;BME280;18207;32.078;34.818;2023-02-01T01:26:26;100461.81;;;20.11;46.35
23619;BME280;18207;32.078;34.818;2023-02-01T01:28:58;100450.97;;;20.09;46.20
23619;BME280;18207;32.078;34.818;2023-02-01T01:31:30;100460.47;;;20.08;46.02
23619;BME280;18207;32.078;34.818;2023-02-01T01:34:00;100429.00;;;20.08;46.14
23619;BME280;18207;32.078;34.818;2023-02-01T01:36:33;100426.56;;;20.06;45.62
23619;BME280;18207;32.078;34.818;2023-02-01T01:39:03;100427.72;;;20.05;46.09
23619;BME280;18207;32.078;34.818;2023-02-01T01:41:34;100430.16;;;20.07;46.00
23619;BME280;18207;32.078;34.818;2023-02-01T01:44:53;100422.94;;;20.06;45.71
23619;BME280;18207;32.078;34.818;2023-02-01T01:46:58;100429.34;;;20.06;45.77
23619;BME280;18207;32.078;34.818;2023-02-01T01:49:30;100423.75;;;20.06;45.40
23619;BME280;18207;32.078;34.818;2023-02-01T01:52:02;100424.09;;;20.05;45.55
23619;BME280;18207;32.078;34.818;2023-02-01T01:54:38;100435.94;;;20.02;45.53
23619;BME280;18207;32.078;34.818;2023-02-01T01:57:15;100434.63;;;19.99;45.97
23619;BME280;18207;32.078;34.818;2023-02-01T01:59:52;100430.19;;;19.98;45.69
23619;BME280;18207;32.078;34.818;2023-02-01T02:02:25;100432.19;;;19.98;45.65
23619;BME280;18207;32.078;34.818;2023-02-01T02:04:56;100433.34;;;19.97;45.67
23619;BME280;18207;32.078;34.818;2023-02-01T02:07:32;100428.56;;;19.97;46.26
23619;BME280;18207;32.078;34.818;2023-02-01T02:10:06;100444.16;;;19.98;46.07
23619;BME280;18207;32.078;34.818;2023-02-01T02:12:41;100448.91;;;19.98;45.96
23619;BME280;18207;32.078;34.818;2023-02-01T02:15:14;100433.81;;;19.99;46.09
23619;BME280;18207;32.078;34.818;2023-02-01T02:17:58;100429.41;;;19.98;45.56
23619;BME280;18207;32.078;34.818;2023-02-01T02:21:10;100424.47;;;19.95;45.79
23619;BME280;18207;32.078;34.818;2023-02-01T02:24:15;100430.25;;;19.90;45.67
23619;BME280;18207;32.078;34.818;2023-02-01T02:27:31;100441.09;;;19.83;45.99
23619;BME280;18207;32.078;34.818;2023-02-01T02:30:44;100425.38;;;19.78;45.99
23619;BME280;18207;32.078;34.818;2023-02-01T02:33:54;100419.34;;;19.77;46.25
23619;BME280;18207;32.078;34.818;2023-02-01T02:36:39;100414.94;;;19.76;45.84
23619;BME280;18207;32.078;34.818;2023-02-01T02:39:23;100419.34;;;19.77;45.65
23619;BME280;18207;32.078;34.818;2023-02-01T02:42:04;100420.16;;;19.77;45.66
23619;BME280;18207;32.078;34.818;2023-02-01T02:45:02;100409.34;;;19.76;45.81
23619;BME280;18207;32.078;34.818;2023-02-01T02:48:04;100407.25;;;19.73;45.67
23619;BME280;18207;32.078;34.818;2023-02-01T02:50:45;100402.47;;;19.73;45.85
23619;BME280;18207;32.078;34.818;2023-02-01T02:53:41;100387.72;;;19.73;45.78
23619;BME280;18207;32.078;34.818;2023-02-01T02:56:45;100398.06;;;19.72;46.34
23619;BME280;18207;32.078;34.818;2023-02-01T02:59:34;100405.59;;;19.72;46.16
23619;BME280;18207;32.078;34.818;2023-02-01T03:02:22;100422.31;;;19.72;46.20
23619;BME280;18207;32.078;34.818;2023-02-01T03:05:12;100428.25;;;19.70;46.11
23619;BME280;18207;32.078;34.818;2023-02-01T03:08:11;100427.75;;;19.68;46.03
23619;BME280;18207;32.078;34.818;2023-02-01T03:10:53;100476.66;;;19.66;46.45
23619;BME280;18207;32.078;34.818;2023-02-01T03:13:36;100461.88;;;19.65;45.96
23619;BME280;18207;32.078;34.818;2023-02-01T03:16:16;100436.78;;;19.65;46.68
23619;BME280;18207;32.078;34.818;2023-02-01T03:18:59;100465.50;;;19.66;46.33
23619;BME280;18207;32.078;34.818;2023-02-01T03:21:36;100469.94;;;19.67;46.23
23619;BME280;18207;32.078;34.818;2023-02-01T03:24:14;100465.16;;;19.67;46.24
23619;BME280;18207;32.078;34.818;2023-02-01T03:26:53;100446.47;;;19.68;46.55
23619;BME280;18207;32.078;34.818;2023-02-01T03:29:30;100448.91;;;19.69;46.66
23619;BME280;18207;32.078;34.818;2023-02-01T03:32:05;100452.84;;;19.68;46.47
23619;BME280;18207;32.078;34.818;2023-02-01T03:34:38;100451.22;;;19.67;46.68
23619;BME280;18207;32.078;34.818;2023-02-01T03:37:12;100463.66;;;19.70;46.09
23619;BME280;18207;32.078;34.818;2023-02-01T03:39:49;100466.78;;;19.68;46.31
23619;BME280;18207;32.078;34.818;2023-02-01T03:42:28;100454.84;;;19.68;46.32
23619;BME280;18207;32.078;34.818;2023-02-01T03:45:07;100463.19;;;19.68;46.23
23619;BME280;18207;32.078;34.818;2023-02-01T03:47:44;100462.38;;;19.67;46.49
23619;BME280;18207;32.078;34.818;2023-02-01T03:50:17;100461.56;;;19.67;46.54
23619;BME280;18207;32.078;34.818;2023-02-01T03:52:53;100441.56;;;19.65;46.50
23619;BME280;18207;32.078;34.818;2023-02-01T03:55:28;100436.00;;;19.65;46.04
23619;BME280;18207;32.078;34.818;2023-02-01T03:58:06;100441.88;;;19.63;46.08
23619;BME280;18207;32.078;34.818;2023-02-01T04:00:37;100450.94;;;19.60;46.45
23619;BME280;18207;32.078;34.818;2023-02-01T04:03:08;100460.78;;;19.58;45.93
23619;BME280;18207;32.078;34.818;2023-02-01T04:05:39;100464.25;;;19.55;46.28
23619;BME280;18207;32.078;34.818;2023-02-01T04:08:09;100457.38;;;19.52;46.07
23619;BME280;18207;32.078;34.818;2023-02-01T04:10:41;100451.31;;;19.50;46.45
23619;BME280;18207;32.078;34.818;2023-02-01T04:13:12;100444.44;;;19.48;46.21
23619;BME280;18207;32.078;34.818;2023-02-01T04:15:43;100421.31;;;19.47;46.52
23619;BME280;18207;32.078;34.818;2023-02-01T04:18:13;100433.63;;;19.46;46.28
23619;BME280;18207;32.078;34.818;2023-02-01T04:20:44;100497.22;;;19.44;46.15
23619;BME280;18207;32.078;34.818;2023-02-01T04:23:15;100490.00;;;19.43;46.29
23619;BME280;18207;32.078;34.818;2023-02-01T04:25:52;100499.56;;;19.42;46.55
23619;BME280;18207;32.078;34.818;2023-02-01T04:28:25;100509.88;;;19.42;46.63
23619;BME280;18207;32.078;34.818;2023-02-01T04:30:56;100524.63;;;19.42;46.63
23619;BME280;18207;32.078;34.818;2023-02-01T04:33:27;100539.22;;;19.39;46.48
23619;BME280;18207;32.078;34.818;2023-02-01T04:35:58;100544.31;;;19.37;46.60
23619;BME280;18207;32.078;34.818;2023-02-01T04:38:28;100541.38;;;19.34;46.47
23619;BME280;18207;32.078;34.818;2023-02-01T04:41:01;100537.28;;;19.31;46.61
23619;BME280;18207;32.078;34.818;2023-02-01T04:43:32;100541.88;;;19.27;46.21
23619;BME280;18207;32.078;34.818;2023-02-01T04:46:02;100533.84;;;19.26;46.37
23619;BME280;18207;32.078;34.818;2023-02-01T04:48:33;100516.31;;;19.25;46.72
23619;BME280;18207;32.078;34.818;2023-02-01T04:51:04;100508.78;;;19.26;46.39
23619;BME280;18207;32.078;34.818;2023-02-01T04:53:34;100509.59;;;19.26;46.08
23619;BME280;18207;32.078;34.818;2023-02-01T04:56:08;100506.81;;;19.26;46.38
23619;BME280;18207;32.078;34.818;2023-02-01T04:58:38;100517.13;;;19.26;46.12
23619;BME280;18207;32.078;34.818;2023-02-01T05:01:08;100509.94;;;19.25;46.07
23619;BME280;18207;32.078;34.818;2023-02-01T05:03:39;100507.94;;;19.25;46.43
23619;BME280;18207;32.078;34.818;2023-02-01T05:06:10;100511.56;;;19.26;46.78
23619;BME280;18207;32.078;34.818;2023-02-01T05:08:40;100536.31;;;19.27;46.60
23619;BME280;18207;32.078;34.818;2023-02-01T05:11:12;100536.44;;;19.31;46.50
23619;BME280;18207;32.078;34.818;2023-02-01T05:13:56;100538.59;;;19.34;46.94
23619;BME280;18207;32.078;34.818;2023-02-01T05:16:29;100538.72;;;19.37;46.28
23619;BME280;18207;32.078;34.818;2023-02-01T05:18:59;100516.94;;;19.39;46.38
23619;BME280;18207;32.078;34.818;2023-02-01T05:21:30;100528.06;;;19.39;46.82
23619;BME280;18207;32.078;34.818;2023-02-01T05:24:01;100516.09;;;19.39;46.40
23619;BME280;18207;32.078;34.818;2023-02-01T05:26:43;100518.06;;;19.38;46.35
23619;BME280;18207;32.078;34.818;2023-02-01T05:29:15;100521.66;;;19.39;46.40
23619;BME280;18207;32.078;34.818;2023-02-01T05:31:47;100523.66;;;19.38;46.78
23619;BME280;18207;32.078;34.818;2023-02-01T05:34:18;100532.00;;;19.38;46.53
23619;BME280;18207;32.078;34.818;2023-02-01T05:36:48;100540.72;;;19.37;46.35
23619;BME280;18207;32.078;34.818;2023-02-01T05:39:19;100536.59;;;19.34;46.62
23619;BME280;18207;32.078;34.818;2023-02-01T05:41:51;100535.00;;;19.33;46.64
23619;BME280;18207;32.078;34.818;2023-02-01T05:44:21;100536.13;;;19.32;46.64
23619;BME280;18207;32.078;34.818;2023-02-01T05:46:52;100544.81;;;19.31;46.42
23619;BME280;18207;32.078;34.818;2023-02-01T05:49:22;100543.50;;;19.28;46.30
23619;BME280;18207;32.078;34.818;2023-02-01T05:51:52;100540.72;;;19.28;46.14
23619;BME280;18207;32.078;34.818;2023-02-01T05:54:24;100611.19;;;19.29;46.33
23619;BME280;18207;32.078;34.818;2023-02-01T05:56:55;100608.41;;;19.29;46.48
23619;BME280;18207;32.078;34.818;2023-02-01T05:59:26;100582.19;;;19.30;46.89
23619;BME280;18207;32.078;34.818;2023-02-01T06:01:56;100602.50;;;19.30;46.93
23619;BME280;18207;32.078;34.818;2023-02-01T06:04:26;100595.31;;;19.29;46.89
23619;BME280;18207;32.078;34.818;2023-02-01T06:06:57;100590.88;;;19.28;46.75
23619;BME280;18207;32.078;34.818;2023-02-01T06:09:27;100608.25;;;19.25;46.50
23619;BME280;18207;32.078;34.818;2023-02-01T06:12:00;100589.88;;;19.24;46.79
23619;BME280;18207;32.078;34.818;2023-02-01T06:14:30;100565.16;;;19.23;46.62
23619;BME280;18207;32.078;34.818;2023-02-01T06:17:01;100578.75;;;19.24;47.16
23619;BME280;18207;32.078;34.818;2023-02-01T06:19:31;100583.16;;;19.25;46.86
23619;BME280;18207;32.078;34.818;2023-02-01T06:22:01;100592.84;;;19.28;47.04
23619;BME280;18207;32.078;34.818;2023-02-01T06:24:34;100592.50;;;19.29;47.12
23619;BME280;18207;32.078;34.818;2023-02-01T06:27:06;100604.97;;;19.32;47.17
23619;BME280;18207;32.078;34.818;2023-02-01T06:29:37;100617.41;;;19.34;47.22
23619;BME280;18207;32.078;34.818;2023-02-01T06:32:08;100611.19;;;19.37;46.67
23619;BME280;18207;32.078;34.818;2023-02-01T06:34:38;100609.69;;;19.40;47.37
23619;BME280;18207;32.078;34.818;2023-02-01T06:37:09;100628.19;;;19.44;46.94
23619;BME280;18207;32.078;34.818;2023-02-01T06:39:40;100630.00;;;19.49;47.33
23619;BME280;18207;32.078;34.818;2023-02-01T06:42:12;100615.41;;;19.52;46.92
23619;BME280;18207;32.078;34.818;2023-02-01T06:44:43;100635.06;;;19.55;47.08
23619;BME280;18207;32.078;34.818;2023-02-01T06:47:13;100614.91;;;19.58;47.20
23619;BME280;18207;32.078;34.818;2023-02-01T06:49:44;100619.81;;;19.61;47.02
23619;BME280;18207;32.078;34.818;2023-02-01T06:52:15;100628.66;;;19.63;46.79
23619;BME280;18207;32.078;34.818;2023-02-01T06:54:46;100628.19;;;19.61;47.31
23619;BME280;18207;32.078;34.818;2023-02-01T06:57:18;100626.19;;;19.62;46.83
23619;BME280;18207;32.078;34.818;2023-02-01T06:59:49;100630.13;;;19.61;47.47
23619;BME280;18207;32.078;34.818;2023-02-01T07:02:19;100628.50;;;19.60;47.29
23619;BME280;18207;32.078;34.818;2023-02-01T07:04:50;100612.25;;;19.62;46.95
23619;BME280;18207;32.078;34.818;2023-02-01T07:07:20;100611.91;;;19.63;47.23
23619;BME280;18207;32.078;34.818;2023-02-01T07:09:50;100607.31;;;19.67;47.60
23619;BME280;18207;32.078;34.818;2023-02-01T07:12:23;100608.97;;;19.68;47.57
23619;BME280;18207;32.078;34.818;2023-02-01T07:14:54;100605.03;;;19.69;47.32
23619;BME280;18207;32.078;34.818;2023-02-01T07:17:24;100596.00;;;19.72;47.44
23619;BME280;18207;32.078;34.818;2023-02-01T07:19:54;100598.94;;;19.76;47.58
23619;BME280;18207;32.078;34.818;2023-02-01T07:22:25;100607.94;;;19.81;47.92
23619;BME280;18207;32.078;34.818;2023-02-01T07:24:57;100603.16;;;19.90;47.79
23619;BME280;18207;32.078;34.818;2023-02-01T07:27:29;100609.53;;;19.99;47.77
23619;BME280;18207;32.078;34.818;2023-02-01T07:30:00;100598.31;;;20.07;48.05
23619;BME280;18207;32.078;34.818;2023-02-01T07:32:31;100616.81;;;20.20;47.93
23619;BME280;18207;32.078;34.818;2023-02-01T07:35:02;100611.34;;;20.32;48.47
23619;BME280;18207;32.078;34.818;2023-02-01T07:37:32;100617.31;;;20.43;48.32
23619;BME280;18207;32.078;34.818;2023-02-01T07:40:04;100618.44;;;20.50;48.29
23619;BME280;18207;32.078;34.818;2023-02-01T07:42:37;100621.66;;;20.61;47.70
23619;BME280;18207;32.078;34.818;2023-02-01T07:45:09;100628.34;;;20.68;48.12
23619;BME280;18207;32.078;34.818;2023-02-01T07:47:48;100635.03;;;20.75;47.62
23619;BME280;18207;32.078;34.818;2023-02-01T07:50:18;100633.84;;;20.85;47.81
23619;BME280;18207;32.078;34.818;2023-02-01T07:52:50;100638.06;;;20.91;47.66
23619;BME280;18207;32.078;34.818;2023-02-01T07:55:21;100637.53;;;20.97;47.90
23619;BME280;18207;32.078;34.818;2023-02-01T07:57:57;100634.63;;;21.06;47.62
23619;BME280;18207;32.078;34.818;2023-02-01T08:00:28;100644.47;;;21.12;47.42
23619;BME280;18207;32.078;34.818;2023-02-01T08:03:15;100638.31;;;21.18;47.73
23619;BME280;18207;32.078;34.818;2023-02-01T08:05:45;100627.41;;;21.25;47.31
23619;BME280;18207;32.078;34.818;2023-02-01T08:08:16;100637.69;;;21.33;47.47
23619;BME280;18207;32.078;34.818;2023-02-01T08:10:46;100640.53;;;21.45;47.45
23619;BME280;18207;32.078;34.818;2023-02-01T08:13:19;100635.13;;;21.60;47.40
23619;BME280;18207;32.078;34.818;2023-02-01T08:15:49;100639.59;;;21.73;48.00
23619;BME280;18207;32.078;34.818;2023-02-01T08:18:20;100631.59;;;21.84;47.90
23619;BME280;18207;32.078;34.818;2023-02-01T08:20:50;100639.88;;;21.92;47.56
23619;BME280;18207;32.078;34.818;2023-02-01T08:23:22;100620.66;;;22.03;47.55
23619;BME280;18207;32.078;34.818;2023-02-01T08:25:53;100621.72;;;22.10;47.31
23619;BME280;18207;32.078;34.818;2023-02-01T08:28:25;100621.94;;;22.17;47.28
23619;BME280;18207;32.078;34.818;2023-02-01T08:30:56;100618.56;;;22.24;46.67
23619;BME280;18207;32.078;34.818;2023-02-01T08:33:27;100620.44;;;22.32;47.14
23619;BME280;18207;32.078;34.818;2023-02-01T08:36:00;100622.31;;;22.40;46.80
23619;BME280;18207;32.078;34.818;2023-02-01T08:38:31;100608.56;;;22.46;46.69
23619;BME280;18207;32.078;34.818;2023-02-01T08:41:06;100616.72;;;22.51;46.48
23619;BME280;18207;32.078;34.818;2023-02-01T08:43:39;100620.44;;;22.55;46.57
23619;BME280;18207;32.078;34.818;2023-02-01T08:46:10;100608.53;;;22.58;46.23
23619;BME280;18207;32.078;34.818;2023-02-01T08:48:41;100588.22;;;22.61;46.08
23619;BME280;18207;32.078;34.818;2023-02-01T08:51:15;100593.56;;;22.66;46.26
23619;BME280;18207;32.078;34.818;2023-02-01T08:53:46;100590.53;;;22.71;46.21
23619;BME280;18207;32.078;34.818;2023-02-01T08:56:18;100591.09;;;22.77;45.77
23619;BME280;18207;32.078;34.818;2023-02-01T08:58:55;100570.06;;;22.83;45.63
23619;BME280;18207;32.078;34.818;2023-02-01T09:01:26;100583.00;;;22.87;45.42
23619;BME280;18207;32.078;34.818;2023-02-01T09:03:57;100574.72;;;22.91;45.40
23619;BME280;18207;32.078;34.818;2023-02-01T09:06:28;100572.03;;;22.94;45.36
23619;BME280;18207;32.078;34.818;2023-02-01T09:08:58;100581.81;;;23.00;45.48
23619;BME280;18207;32.078;34.818;2023-02-01T09:11:28;100563.94;;;23.05;44.90
23619;BME280;18207;32.078;34.818;2023-02-01T09:14:00;100572.91;;;23.10;45.00
23619;BME280;18207;32.078;34.818;2023-02-01T09:16:30;100579.09;;;23.16;45.14
23619;BME280;18207;32.078;34.818;2023-02-01T09:19:09;100566.00;;;23.20;44.78
23619;BME280;18207;32.078;34.818;2023-02-01T09:21:53;100552.41;;;23.22;44.52
23619;BME280;18207;32.078;34.818;2023-02-01T09:24:24;100551.72;;;23.25;44.52
23619;BME280;18207;32.078;34.818;2023-02-01T09:26:55;100555.44;;;23.29;44.14
23619;BME280;18207;32.078;34.818;2023-02-01T09:29:28;100547.13;;;23.32;44.15
23619;BME280;18207;32.078;34.818;2023-02-01T09:31:59;100547.91;;;23.32;43.77
23619;BME280;18207;32.078;34.818;2023-02-01T09:34:31;100545.50;;;23.31;43.48
23619;BME280;18207;32.078;34.818;2023-02-01T09:37:02;100532.25;;;23.31;43.67
23619;BME280;18207;32.078;34.818;2023-02-01T09:39:33;100529.47;;;23.31;43.65
23619;BME280;18207;32.078;34.818;2023-02-01T09:42:19;100529.94;;;23.33;43.58
23619;BME280;18207;32.078;34.818;2023-02-01T09:45:10;100531.56;;;23.34;43.69
23619;BME280;18207;32.078;34.818;2023-02-01T09:47:54;100533.56;;;23.34;43.53
23619;BME280;18207;32.078;34.818;2023-02-01T09:50:34;100516.00;;;23.37;43.29
23619;BME280;18207;32.078;34.818;2023-02-01T09:53:12;100497.66;;;23.39;43.25
23619;BME280;18207;32.078;34.818;2023-02-01T09:55:48;100509.69;;;23.40;43.13
23619;BME280;18207;32.078;34.818;2023-02-01T09:58:29;100497.66;;;23.39;42.71
23619;BME280;18207;32.078;34.818;2023-02-01T10:01:08;100495.19;;;23.38;42.61
23619;BME280;18207;32.078;34.818;2023-02-01T10:03:44;100486.31;;;23.36;42.58
23619;BME280;18207;32.078;34.818;2023-02-01T10:06:38;100470.66;;;23.35;42.89
23619;BME280;18207;32.078;34.818;2023-02-01T10:09:29;100462.16;;;23.31;42.65
23619;BME280;18207;32.078;34.818;2023-02-01T10:12:44;100464.16;;;23.31;42.41
23619;BME280;18207;32.078;34.818;2023-02-01T10:15:35;100457.63;;;23.27;42.11
23619;BME280;18207;32.078;34.818;2023-02-01T10:18:35;100463.63;;;23.26;42.18
23619;BME280;18207;32.078;34.818;2023-02-01T10:21:27;100453.13;;;23.23;42.27
23619;BME280;18207;32.078;34.818;2023-02-01T10:24:19;100447.78;;;23.18;42.33
23619;BME280;18207;32.078;34.818;2023-02-01T10:27:01;100455.28;;;23.14;41.88
23619;BME280;18207;32.078;34.818;2023-02-01T10:29:37;100423.56;;;23.10;42.02
23619;BME280;18207;32.078;34.818;2023-02-01T10:32:14;100437.81;;;23.05;41.81
23619;BME280;18207;32.078;34.818;2023-02-01T10:34:56;100428.44;;;23.01;41.82
23619;BME280;18207;32.078;34.818;2023-02-01T10:37:41;100423.13;;;22.96;41.85
23619;BME280;18207;32.078;34.818;2023-02-01T10:40:22;100411.81;;;22.92;41.81
23619;BME280;18207;32.078;34.818;2023-02-01T10:42:59;100411.72;;;22.89;41.94
23619;BME280;18207;32.078;34.818;2023-02-01T10:45:33;100408.38;;;22.83;41.63
23619;BME280;18207;32.078;34.818;2023-02-01T10:48:04;100413.88;;;22.80;41.77
23619;BME280;18207;32.078;34.818;2023-02-01T10:50:46;100396.16;;;22.76;41.94
23619;BME280;18207;32.078;34.818;2023-02-01T10:53:24;100379.63;;;22.71;41.29
23619;BME280;18207;32.078;34.818;2023-02-01T10:55:56;100410.69;;;22.66;41.67
23619;BME280;18207;32.078;34.818;2023-02-01T10:58:29;100391.34;;;22.61;41.48
23619;BME280;18207;32.078;34.818;2023-02-01T11:01:03;100384.03;;;22.56;41.37
23619;BME280;18207;32.078;34.818;2023-02-01T11:03:38;100381.09;;;22.53;41.77
23619;BME280;18207;32.078;34.818;2023-02-01T11:06:24;100386.59;;;22.49;41.36
23619;BME280;18207;32.078;34.818;2023-02-01T11:09:00;100367.72;;;22.46;41.59
23619;BME280;18207;32.078;34.818;2023-02-01T11:11:31;100383.59;;;22.42;41.71
23619;BME280;18207;32.078;34.818;2023-02-01T11:14:13;100389.13;;;22.39;41.19
23619;BME280;18207;32.078;34.818;2023-02-01T11:16:50;100396.25;;;22.37;41.41
23619;BME280;18207;32.078;34.818;2023-02-01T11:19:22;100374.56;;;22.34;41.24
23619;BME280;18207;32.078;34.818;2023-02-01T11:21:59;100400.41;;;22.31;41.23
23619;BME280;18207;32.078;34.818;2023-02-01T11:24:33;100415.47;;;22.26;41.85
23619;BME280;18207;32.078;34.818;2023-02-01T11:27:17;100411.41;;;22.24;42.17
23619;BME280;18207;32.078;34.818;2023-02-01T11:29:59;100410.84;;;22.18;41.85
23619;BME280;18207;32.078;34.818;2023-02-01T11:32:32;100396.28;;;22.13;42.24
23619;BME280;18207;32.078;34.818;2023-02-01T11:35:06;100388.59;;;22.10;41.83
23619;BME280;18207;32.078;34.818;2023-02-01T11:37:41;100404.91;;;22.08;42.46
23619;BME280;18207;32.078;34.818;2023-02-01T11:40:27;100407.59;;;22.04;42.27
23619;BME280;18207;32.078;34.818;2023-02-01T11:43:07;100442.72;;;22.02;42.41
23619;BME280;18207;32.078;34.818;2023-02-01T11:45:38;100451.00;;;21.98;42.36
23619;BME280;18207;32.078;34.818;2023-02-01T11:48:15;100450.91;;;21.95;42.91
23619;BME280;18207;32.078;34.818;2023-02-01T11:51:14;100440.97;;;21.85;42.81
23619;BME280;18207;32.078;34.818;2023-02-01T11:54:30;100438.19;;;21.73;42.66
23619;BME280;18207;32.078;34.818;2023-02-01T11:57:27;100413.16;;;21.65;42.85
23619;BME280;18207;32.078;34.818;2023-02-01T12:00:22;100410.47;;;21.56;43.05
23619;BME280;18207;32.078;34.818;2023-02-01T12:03:40;100460.91;;;21.48;43.14
23619;BME280;18207;32.078;34.818;2023-02-01T12:06:27;100440.41;;;21.44;43.46
23619;BME280;18207;32.078;34.818;2023-02-01T12:09:29;100436.31;;;21.42;43.38
23619;BME280;18207;32.078;34.818;2023-02-01T12:12:16;100479.75;;;21.39;43.66
23619;BME280;18207;32.078;34.818;2023-02-01T12:15:16;100485.56;;;21.34;43.52
23619;BME280;18207;32.078;34.818;2023-02-01T12:18:35;100461.00;;;21.28;43.69
23619;BME280;18207;32.078;34.818;2023-02-01T12:31:30;100456.75;;;20.98;43.88
23619;BME280;18207;32.078;34.818;2023-02-01T12:34:24;100453.47;;;20.96;43.58
23619;BME280;18207;32.078;34.818;2023-02-01T12:37:11;100460.25;;;20.95;43.70
23619;BME280;18207;32.078;34.818;2023-02-01T12:39:56;100448.22;;;20.94;44.00
23619;BME280;18207;32.078;34.818;2023-02-01T12:42:37;100452.19;;;20.93;43.67
23619;BME280;18207;32.078;34.818;2023-02-01T12:45:22;100467.31;;;20.92;43.94
23619;BME280;18207;32.078;34.818;2023-02-01T12:47:59;100505.13;;;20.90;43.82
23619;BME280;18207;32.078;34.818;2023-02-01T12:50:39;100502.22;;;20.86;44.04
23619;BME280;18207;32.078;34.818;2023-02-01T12:53:19;100519.16;;;20.81;44.26
23619;BME280;18207;32.078;34.818;2023-02-01T12:55:57;100535.00;;;20.77;43.96
23619;BME280;18207;32.078;34.818;2023-02-01T12:58:40;100522.50;;;20.75;43.96
23619;BME280;18207;32.078;34.818;2023-02-01T13:01:20;100531.09;;;20.70;44.02
23619;BME280;18207;32.078;34.818;2023-02-01T13:03:59;100530.94;;;20.66;43.56
23619;BME280;18207;32.078;34.818;2023-02-01T13:06:39;100528.34;;;20.62;44.05
23619;BME280;18207;32.078;34.818;2023-02-01T13:09:23;100519.53;;;20.60;43.77
23619;BME280;18207;32.078;34.818;2023-02-01T13:12:04;100513.09;;;20.59;44.39
23619;BME280;18207;32.078;34.818;2023-02-01T13:14:43;100505.88;;;20.58;44.27
23619;BME280;18207;32.078;34.818;2023-02-01T13:17:23;100515.75;;;20.56;43.82
23619;BME280;18207;32.078;34.818;2023-02-01T13:19:59;100507.41;;;20.56;44.33
23619;BME280;18207;32.078;34.818;2023-02-01T13:22:37;100510.53;;;20.54;44.53
23619;BME280;18207;32.078;34.818;2023-02-01T13:25:16;100523.34;;;20.55;43.99
23619;BME280;18207;32.078;34.818;2023-02-01T13:27:50;100538.09;;;20.56;43.95
23619;BME280;18207;32.078;34.818;2023-02-01T13:30:28;100542.88;;;20.55;44.50
23619;BME280;18207;32.078;34.818;2023-02-01T13:33:41;100555.53;;;20.53;44.13
23619;BME280;18207;32.078;34.818;2023-02-01T13:36:48;100563.75;;;20.49;44.21
23619;BME280;18207;32.078;34.818;2023-02-01T13:39:54;100563.63;;;20.46;44.56